createdAt,value
2018-02-18T00:00:43.434Z,36.7
2018-02-18T00:01:43.216Z,37.2
2018-02-18T00:02:43.419Z,37.5
2018-02-18T00:03:43.756Z,37.3
2018-02-18T00:04:42.776Z,36.8
2018-02-18T00:05:43.427Z,36.3
2018-02-18T00:06:42.742Z,36.1
2018-02-18T00:07:42.740Z,36.1
2018-02-18T00:08:42.902Z,36
2018-02-18T00:09:42.351Z,36.1
2018-02-18T00:10:42.452Z,36.2
2018-02-18T00:11:42.972Z,36.3
2018-02-18T00:12:42.536Z,36.3
2018-02-18T00:13:42.345Z,36.4
2018-02-18T00:14:42.364Z,36.4
2018-02-18T00:15:42.207Z,36.6
2018-02-18T00:16:42.316Z,37.2
2018-02-18T00:17:42.020Z,36.3
2018-02-18T00:18:41.967Z,29.1
2018-02-18T00:19:41.948Z,25.9
2018-02-18T00:20:41.719Z,25.6
2018-02-18T00:21:41.654Z,29.1
2018-02-18T00:22:42.230Z,29.1
2018-02-18T00:23:41.606Z,24.5
2018-02-18T00:24:41.332Z,23.6
2018-02-18T00:25:41.796Z,24.8
2018-02-18T00:26:41.265Z,28.4
2018-02-18T00:27:41.776Z,27.5
2018-02-18T00:28:41.768Z,24.3
2018-02-18T00:29:41.287Z,23.7
2018-02-18T00:30:41.346Z,25.9
2018-02-18T00:31:41.084Z,29.4
2018-02-18T00:32:41.431Z,31.3
2018-02-18T00:33:41.151Z,32.8
2018-02-18T00:34:40.723Z,33.6
2018-02-18T00:35:40.901Z,34.2
2018-02-18T00:36:40.765Z,34.6
2018-02-18T00:37:40.863Z,35
2018-02-18T00:38:40.924Z,35.3
2018-02-18T00:39:41.059Z,35.4
2018-02-18T00:40:40.462Z,35.5
2018-02-18T00:41:40.645Z,35.6
2018-02-18T00:42:40.469Z,35.7
2018-02-18T00:43:40.308Z,35.7
2018-02-18T00:44:40.975Z,35.8
2018-02-18T00:45:40.144Z,36.1
2018-02-18T00:46:40.253Z,36.7
2018-02-18T00:47:41.032Z,37.2
2018-02-18T00:48:39.791Z,37.6
2018-02-18T00:49:39.632Z,37.4
2018-02-18T00:50:39.516Z,36.9
2018-02-18T00:51:40.214Z,36.6
2018-02-18T00:52:40.051Z,36.3
2018-02-18T00:53:39.665Z,36.1
2018-02-18T00:54:39.556Z,36.1
2018-02-18T00:55:39.501Z,36.1
2018-02-18T00:56:39.154Z,36.2
2018-02-18T00:57:39.991Z,36.3
2018-02-18T00:58:39.593Z,36.3
2018-02-18T00:59:39.906Z,36.4
2018-02-18T01:00:39.615Z,36.3
2018-02-18T01:01:39.000Z,30.7
2018-02-18T01:02:39.002Z,25.4
2018-02-18T01:03:39.064Z,24.3
2018-02-18T01:04:39.048Z,28.9
2018-02-18T01:05:39.253Z,31.6
2018-02-18T01:06:38.500Z,26.8
2018-02-18T01:07:38.781Z,25.1
2018-02-18T01:08:38.941Z,25
2018-02-18T01:09:38.966Z,29.1
2018-02-18T01:10:39.166Z,30.9
2018-02-18T01:11:38.581Z,32.5
2018-02-18T01:12:38.262Z,33.8
2018-02-18T01:13:38.494Z,34.4
2018-02-18T01:14:38.162Z,34.8
2018-02-18T01:15:38.960Z,35.1
2018-02-18T01:16:38.529Z,35.4
2018-02-18T01:17:38.457Z,35.5
2018-02-18T01:18:38.448Z,35.6
2018-02-18T01:19:38.195Z,35.6
2018-02-18T01:20:37.719Z,35.7
2018-02-18T01:21:37.542Z,35.8
2018-02-18T01:22:38.142Z,35.8
2018-02-18T01:23:37.333Z,35.8
2018-02-18T01:24:37.412Z,36.3
2018-02-18T01:25:37.992Z,36.9
2018-02-18T01:26:37.153Z,37.3
2018-02-18T01:27:37.352Z,37.6
2018-02-18T01:28:37.095Z,37.6
2018-02-18T01:29:37.084Z,37
2018-02-18T01:30:37.608Z,36.6
2018-02-18T01:31:36.936Z,36.3
2018-02-18T01:32:37.111Z,36.1
2018-02-18T01:33:37.063Z,36.1
2018-02-18T01:34:37.069Z,36.2
2018-02-18T01:35:36.722Z,36.3
2018-02-18T01:36:36.955Z,36.3
2018-02-18T01:37:36.548Z,36.3
2018-02-18T01:38:36.748Z,36.3
2018-02-18T01:39:36.571Z,36.3
2018-02-18T01:40:36.344Z,31.6
2018-02-18T01:41:36.752Z,25.4
2018-02-18T01:42:36.131Z,24.1
2018-02-18T01:43:36.441Z,28.3
2018-02-18T01:44:36.163Z,31.6
2018-02-18T01:45:36.370Z,27.3
2018-02-18T01:46:36.095Z,25.3
2018-02-18T01:47:35.786Z,25
2018-02-18T01:48:35.607Z,28.8
2018-02-18T01:49:36.027Z,30.7
2018-02-18T01:50:35.438Z,32.2
2018-02-18T01:51:35.546Z,33.6
2018-02-18T01:52:35.839Z,34.4
2018-02-18T01:53:35.527Z,34.8
2018-02-18T01:54:35.307Z,35.1
2018-02-18T01:55:35.102Z,35.3
2018-02-18T01:56:35.062Z,35.5
2018-02-18T01:57:35.090Z,35.6
2018-02-18T01:58:35.290Z,35.7
2018-02-18T01:59:35.164Z,35.7
2018-02-18T02:00:34.942Z,35.7
2018-02-18T02:01:35.020Z,35.8
2018-02-18T02:02:35.024Z,35.8
2018-02-18T02:03:34.923Z,36.4
2018-02-18T02:04:34.867Z,37.1
2018-02-18T02:05:34.966Z,37.5
2018-02-18T02:06:34.945Z,37.3
2018-02-18T02:07:34.449Z,36.8
2018-02-18T02:08:34.410Z,36.4
2018-02-18T02:09:35.009Z,36.2
2018-02-18T02:10:34.190Z,36.1
2018-02-18T02:11:34.867Z,36
2018-02-18T02:12:34.280Z,36.1
2018-02-18T02:13:33.935Z,36.1
2018-02-18T02:14:34.020Z,36.1
2018-02-18T02:15:33.802Z,36.2
2018-02-18T02:16:34.014Z,36.3
2018-02-18T02:17:34.541Z,36.3
2018-02-18T02:18:34.099Z,36.4
2018-02-18T02:19:33.523Z,36
2018-02-18T02:20:34.018Z,29.4
2018-02-18T02:21:33.742Z,25.2
2018-02-18T02:22:33.772Z,24.8
2018-02-18T02:23:33.618Z,25
2018-02-18T02:24:33.226Z,23.8
2018-02-18T02:25:33.222Z,23.5
2018-02-18T02:26:33.526Z,27.3
2018-02-18T02:27:33.192Z,30.6
2018-02-18T02:28:33.163Z,31.9
2018-02-18T02:29:33.072Z,33.1
2018-02-18T02:30:32.996Z,35.1
2018-02-18T02:31:32.794Z,36.6
2018-02-18T02:32:32.877Z,37.7
2018-02-18T02:33:33.434Z,38.6
2018-02-18T02:34:32.707Z,38.9
2018-02-18T02:35:32.678Z,39.1
2018-02-18T02:36:32.573Z,38.9
2018-02-18T02:37:32.203Z,38.9
2018-02-18T02:38:32.772Z,35.1
2018-02-18T02:39:32.355Z,30.9
2018-02-18T02:40:32.683Z,29.7
2018-02-18T02:41:32.206Z,30.1
2018-02-18T02:42:31.824Z,31.7
2018-02-18T02:43:32.252Z,27.6
2018-02-18T02:44:31.866Z,24.9
2018-02-18T02:45:31.968Z,24.3
2018-02-18T02:46:32.244Z,27.6
2018-02-18T02:47:31.589Z,30.1
2018-02-18T02:48:32.004Z,31.7
2018-02-18T02:49:32.351Z,33.1
2018-02-18T02:50:31.650Z,34
2018-02-18T02:51:31.621Z,34.6
2018-02-18T02:52:31.441Z,35
2018-02-18T02:53:32.059Z,35.4
2018-02-18T02:54:31.106Z,35.6
2018-02-18T02:55:31.705Z,35.7
2018-02-18T02:56:31.290Z,35.8
2018-02-18T02:57:31.086Z,35.8
2018-02-18T02:58:31.123Z,35.8
2018-02-18T02:59:31.366Z,35.8
2018-02-18T03:00:31.397Z,35.9
2018-02-18T03:01:30.718Z,36.4
2018-02-18T03:02:30.961Z,36.9
2018-02-18T03:03:30.550Z,37.4
2018-02-18T03:04:30.520Z,37.5
2018-02-18T03:05:30.664Z,37.2
2018-02-18T03:06:31.220Z,36.9
2018-02-18T03:07:30.332Z,36.9
2018-02-18T03:08:30.322Z,36.9
2018-02-18T03:09:30.172Z,36.9
2018-02-18T03:10:30.462Z,37.1
2018-02-18T03:11:30.366Z,35.3
2018-02-18T03:12:30.785Z,29.5
2018-02-18T03:13:29.811Z,27.6
2018-02-18T03:14:29.567Z,28.3
2018-02-18T03:15:29.754Z,31.4
2018-02-18T03:16:30.294Z,29.4
2018-02-18T03:17:29.772Z,25.3
2018-02-18T03:18:29.844Z,24.6
2018-02-18T03:19:29.480Z,26.7
2018-02-18T03:20:30.161Z,29.9
2018-02-18T03:21:29.855Z,27
2018-02-18T03:22:29.894Z,24
2018-02-18T03:23:29.211Z,23.4
2018-02-18T03:24:29.028Z,26.3
2018-02-18T03:25:28.958Z,29.1
2018-02-18T03:26:29.665Z,30.7
2018-02-18T03:27:29.596Z,31.8
2018-02-18T03:28:29.454Z,32.3
2018-02-18T03:29:29.306Z,32.7
2018-02-18T03:30:29.159Z,33.1
2018-02-18T03:31:28.773Z,34
2018-02-18T03:32:28.593Z,34.9
2018-02-18T03:33:29.085Z,35.5
2018-02-18T03:34:28.203Z,35.8
2018-02-18T03:35:28.287Z,36.2
2018-02-18T03:36:28.305Z,36.4
2018-02-18T03:37:28.443Z,36.6
2018-02-18T03:38:28.353Z,36.8
2018-02-18T03:39:28.483Z,37.2
2018-02-18T03:40:28.266Z,37.5
2018-02-18T03:41:27.710Z,37.4
2018-02-18T03:42:27.948Z,36.8
2018-02-18T03:43:28.270Z,36.4
2018-02-18T03:44:28.180Z,36.2
2018-02-18T03:45:27.895Z,36
2018-02-18T03:46:28.287Z,35.9
2018-02-18T03:47:27.914Z,35.9
2018-02-18T03:48:27.808Z,35.9
2018-02-18T03:49:27.596Z,36
2018-02-18T03:50:27.571Z,36.1
2018-02-18T03:51:27.422Z,36.2
2018-02-18T03:52:27.191Z,36.3
2018-02-18T03:53:27.236Z,36.3
2018-02-18T03:54:27.127Z,36.4
2018-02-18T03:55:27.012Z,36.3
2018-02-18T03:56:27.852Z,30.6
2018-02-18T03:57:27.417Z,25.3
2018-02-18T03:58:26.900Z,24.1
2018-02-18T03:59:27.063Z,29
2018-02-18T04:00:26.726Z,31.6
2018-02-18T04:01:26.594Z,26.8
2018-02-18T04:02:26.800Z,25.1
2018-02-18T04:03:26.334Z,25.1
2018-02-18T04:04:26.381Z,29.1
2018-02-18T04:05:26.645Z,30.9
2018-02-18T04:06:26.303Z,32.6
2018-02-18T04:07:26.972Z,33.9
2018-02-18T04:08:26.627Z,34.5
2018-02-18T04:09:26.563Z,35
2018-02-18T04:10:25.952Z,35.4
2018-02-18T04:11:26.071Z,35.6
2018-02-18T04:12:25.702Z,35.8
2018-02-18T04:13:25.702Z,35.8
2018-02-18T04:14:25.586Z,35.9
2018-02-18T04:15:25.704Z,36
2018-02-18T04:16:25.643Z,36.1
2018-02-18T04:17:25.983Z,36.1
2018-02-18T04:18:25.382Z,36.2
2018-02-18T04:19:25.434Z,36.7
2018-02-18T04:20:25.250Z,37.3
2018-02-18T04:21:25.220Z,37.5
2018-02-18T04:22:25.453Z,37.6
2018-02-18T04:23:24.944Z,37.6
2018-02-18T04:24:25.549Z,37.6
2018-02-18T04:25:24.938Z,37.8
2018-02-18T04:26:24.862Z,37.6
2018-02-18T04:27:25.187Z,35.6
2018-02-18T04:28:24.592Z,29.6
2018-02-18T04:29:24.406Z,27.6
2018-02-18T04:30:25.366Z,28.1
2018-02-18T04:31:24.846Z,31
2018-02-18T04:32:24.312Z,29.3
2018-02-18T04:33:24.480Z,25.1
2018-02-18T04:34:24.351Z,24.3
2018-02-18T04:35:24.399Z,26.4
2018-02-18T04:36:24.156Z,29.6
2018-02-18T04:37:24.347Z,31.2
2018-02-18T04:38:23.950Z,32.8
2018-02-18T04:39:24.055Z,33.8
2018-02-18T04:40:24.063Z,34.4
2018-02-18T04:41:24.236Z,34.9
2018-02-18T04:42:23.649Z,35.2
2018-02-18T04:43:24.154Z,35.4
2018-02-18T04:44:23.730Z,35.4
2018-02-18T04:45:23.529Z,35.5
2018-02-18T04:46:24.011Z,35.6
2018-02-18T04:47:23.638Z,35.6
2018-02-18T04:48:23.255Z,35.6
2018-02-18T04:49:23.158Z,35.7
2018-02-18T04:50:22.991Z,36
2018-02-18T04:51:23.020Z,36.6
2018-02-18T04:52:22.937Z,37
2018-02-18T04:53:23.548Z,37.4
2018-02-18T04:54:23.264Z,37.6
2018-02-18T04:55:22.938Z,37.2
2018-02-18T04:56:22.907Z,36.6
2018-02-18T04:57:22.739Z,36.3
2018-02-18T04:58:22.891Z,36.1
2018-02-18T04:59:22.557Z,36
2018-02-18T05:00:22.784Z,36
2018-02-18T05:01:22.612Z,36.1
2018-02-18T05:02:22.450Z,36.1
2018-02-18T05:03:22.554Z,36.1
2018-02-18T05:04:22.523Z,36.1
2018-02-18T05:05:22.167Z,36.2
2018-02-18T05:06:22.254Z,36.3
2018-02-18T05:07:22.096Z,36.6
2018-02-18T05:08:22.571Z,37.4
2018-02-18T05:09:21.880Z,38.1
2018-02-18T05:10:21.852Z,38.5
2018-02-18T05:11:21.699Z,38.8
2018-02-18T05:12:21.479Z,36.2
2018-02-18T05:13:22.437Z,28.8
2018-02-18T05:14:22.172Z,26.5
2018-02-18T05:15:21.466Z,26.9
2018-02-18T05:16:21.294Z,29.9
2018-02-18T05:17:21.809Z,27.3
2018-02-18T05:18:21.185Z,24.1
2018-02-18T05:19:21.695Z,23.6
2018-02-18T05:20:21.101Z,25.7
2018-02-18T05:21:21.519Z,29
2018-02-18T05:22:21.184Z,25.7
2018-02-18T05:23:21.019Z,23.4
2018-02-18T05:24:20.827Z,23
2018-02-18T05:25:21.276Z,26.8
2018-02-18T05:26:20.991Z,29.9
2018-02-18T05:27:20.692Z,31.6
2018-02-18T05:28:21.106Z,33
2018-02-18T05:29:20.239Z,33.8
2018-02-18T05:30:20.572Z,34.3
2018-02-18T05:31:20.392Z,34.6
2018-02-18T05:32:20.536Z,35
2018-02-18T05:33:20.021Z,35.3
2018-02-18T05:34:19.991Z,35.4
2018-02-18T05:35:20.013Z,35.4
2018-02-18T05:36:20.013Z,35.6
2018-02-18T05:37:19.951Z,35.6
2018-02-18T05:38:19.768Z,35.7
2018-02-18T05:39:20.132Z,31.9
2018-02-18T05:40:19.908Z,29.2
2018-02-18T05:41:19.439Z,28.3
2018-02-18T05:42:19.462Z,29.3
2018-02-18T05:43:19.843Z,30.8
2018-02-18T05:44:19.600Z,26.4
2018-02-18T05:45:19.146Z,23.7
2018-02-18T05:46:19.771Z,23.3
2018-02-18T05:47:19.360Z,26.7
2018-02-18T05:48:19.513Z,29.3
2018-02-18T05:49:19.828Z,30.9
2018-02-18T05:50:18.999Z,32.4
2018-02-18T05:51:19.421Z,33.3
2018-02-18T05:52:19.133Z,33.9
2018-02-18T05:53:19.450Z,34.4
2018-02-18T05:54:19.181Z,34.8
2018-02-18T05:55:19.566Z,35
2018-02-18T05:56:18.360Z,35.2
2018-02-18T05:57:19.039Z,35.3
2018-02-18T05:58:18.748Z,35.4
2018-02-18T05:59:18.664Z,35.6
2018-02-18T06:00:18.951Z,35.6
2018-02-18T06:01:18.695Z,35.7
2018-02-18T06:02:18.562Z,36.2
2018-02-18T06:03:18.640Z,36.8
2018-02-18T06:04:17.980Z,37.2
2018-02-18T06:05:18.351Z,37.4
2018-02-18T06:06:18.586Z,32.4
2018-02-18T06:07:17.865Z,29.3
2018-02-18T06:08:18.041Z,28.4
2018-02-18T06:09:17.742Z,29.8
2018-02-18T06:10:17.964Z,30.8
2018-02-18T06:11:17.669Z,25.8
2018-02-18T06:12:17.676Z,24
2018-02-18T06:13:17.456Z,23.9
2018-02-18T06:14:17.341Z,27.9
2018-02-18T06:15:17.338Z,30.1
2018-02-18T06:16:17.845Z,31.7
2018-02-18T06:17:16.982Z,32.9
2018-02-18T06:18:17.491Z,33.8
2018-02-18T06:19:17.514Z,34.4
2018-02-18T06:20:16.883Z,34.9
2018-02-18T06:21:16.895Z,35.2
2018-02-18T06:22:16.842Z,35.4
2018-02-18T06:23:17.068Z,35.5
2018-02-18T06:24:17.332Z,35.6
2018-02-18T06:25:17.147Z,32.4
2018-02-18T06:26:16.846Z,29.3
2018-02-18T06:27:16.291Z,28.3
2018-02-18T06:28:16.778Z,28.9
2018-02-18T06:29:16.964Z,30.6
2018-02-18T06:30:16.141Z,26.9
2018-02-18T06:31:16.317Z,23.9
2018-02-18T06:32:16.581Z,23.3
2018-02-18T06:33:15.888Z,26.6
2018-02-18T06:34:16.666Z,29.3
2018-02-18T06:35:16.043Z,31.1
2018-02-18T06:36:16.183Z,32.4
2018-02-18T06:37:15.910Z,33.3
2018-02-18T06:38:15.680Z,34
2018-02-18T06:39:15.898Z,34.6
2018-02-18T06:40:15.891Z,35
2018-02-18T06:41:15.454Z,35.2
2018-02-18T06:42:15.268Z,35.3
2018-02-18T06:43:15.282Z,35.4
2018-02-18T06:44:15.240Z,35.5
2018-02-18T06:45:15.146Z,35.6
2018-02-18T06:46:15.778Z,35.7
2018-02-18T06:47:14.910Z,35.6
2018-02-18T06:48:15.743Z,35.3
2018-02-18T06:49:15.018Z,35.3
2018-02-18T06:50:14.967Z,35.8
2018-02-18T06:51:15.450Z,36.4
2018-02-18T06:52:15.828Z,36.8
2018-02-18T06:53:14.849Z,37
2018-02-18T06:54:14.751Z,37.5
2018-02-18T06:55:14.356Z,37.6
2018-02-18T06:56:15.697Z,37.4
2018-02-18T06:57:14.260Z,37.3
2018-02-18T06:58:14.773Z,37.3
2018-02-18T06:59:14.175Z,37.4
2018-02-18T07:00:14.863Z,32.9
2018-02-18T07:01:14.210Z,28.2
2018-02-18T07:02:14.185Z,26.9
2018-02-18T07:03:13.897Z,28.3
2018-02-18T07:04:14.042Z,30.5
2018-02-18T07:05:14.302Z,26
2018-02-18T07:06:13.661Z,23.8
2018-02-18T07:07:13.759Z,23.4
2018-02-18T07:08:13.871Z,27.6
2018-02-18T07:09:13.370Z,29.7
2018-02-18T07:10:13.582Z,25.3
2018-02-18T07:11:13.509Z,23.8
2018-02-18T07:12:13.693Z,23.8
2018-02-18T07:13:14.290Z,27.6
2018-02-18T07:14:12.987Z,29.1
2018-02-18T07:15:13.087Z,25
2018-02-18T07:16:13.917Z,23.8
2018-02-18T07:17:13.138Z,24
2018-02-18T07:18:13.196Z,27.6
2018-02-18T07:19:13.220Z,28.2
2018-02-18T07:20:12.942Z,24.4
2018-02-18T07:21:12.772Z,23.3
2018-02-18T07:22:12.818Z,23.9
2018-02-18T07:23:12.428Z,27.3
2018-02-18T07:24:12.456Z,27
2018-02-18T07:25:12.465Z,23.4
2018-02-18T07:26:12.475Z,22.6
2018-02-18T07:27:12.526Z,22.4
2018-02-18T07:28:12.595Z,22.4
2018-02-18T07:29:12.554Z,22.5
2018-02-18T07:30:12.360Z,24.3
2018-02-18T07:31:12.311Z,28.7
2018-02-18T07:32:12.324Z,28.6
2018-02-18T07:33:12.224Z,25
2018-02-18T07:34:12.877Z,24.3
2018-02-18T07:35:11.811Z,25.7
2018-02-18T07:36:11.511Z,28.3
2018-02-18T07:37:12.194Z,26.2
2018-02-18T07:38:11.783Z,23.3
2018-02-18T07:39:11.571Z,22.8
2018-02-18T07:40:12.450Z,22.6
2018-02-18T07:41:11.475Z,23.5
2018-02-18T07:42:11.305Z,26.6
2018-02-18T07:43:11.351Z,26.2
2018-02-18T07:44:11.556Z,22.6
2018-02-18T07:45:11.709Z,21.6
2018-02-18T07:46:11.156Z,21.5
2018-02-18T07:47:10.977Z,22
2018-02-18T07:48:11.240Z,25.3
2018-02-18T07:49:10.937Z,25.8
2018-02-18T07:50:10.551Z,22.4
2018-02-18T07:51:11.829Z,21.3
2018-02-18T07:52:10.536Z,21.2
2018-02-18T07:53:10.576Z,21.3
2018-02-18T07:54:11.215Z,24.7
2018-02-18T07:55:10.601Z,26.8
2018-02-18T07:56:10.412Z,23.4
2018-02-18T07:57:10.950Z,22.3
2018-02-18T07:58:10.440Z,22.1
2018-02-18T07:59:09.988Z,23.5
2018-02-18T08:00:09.994Z,26.7
2018-02-18T08:01:10.032Z,26
2018-02-18T08:02:09.953Z,21.8
2018-02-18T08:03:10.053Z,21
2018-02-18T08:04:10.195Z,21.1
2018-02-18T08:05:10.574Z,21.8
2018-02-18T08:06:09.727Z,25.3
2018-02-18T08:07:09.579Z,25.9
2018-02-18T08:08:09.416Z,21.8
2018-02-18T08:09:09.520Z,20.9
2018-02-18T08:10:09.735Z,20.9
2018-02-18T08:11:09.688Z,21.3
2018-02-18T08:12:09.421Z,24.6
2018-02-18T08:13:09.321Z,25.9
2018-02-18T08:14:09.279Z,22.3
2018-02-18T08:15:09.868Z,21.2
2018-02-18T08:16:09.334Z,21
2018-02-18T08:17:09.063Z,21.4
2018-02-18T08:18:08.816Z,24.6
2018-02-18T08:19:08.719Z,25.3
2018-02-18T08:20:09.045Z,21.5
2018-02-18T08:21:09.095Z,20.3
2018-02-18T08:22:08.633Z,20.3
2018-02-18T08:23:08.668Z,23.7
2018-02-18T08:24:09.374Z,25.8
2018-02-18T08:25:08.402Z,22.1
2018-02-18T08:26:08.062Z,19.3
2018-02-18T08:27:08.368Z,19.5
2018-02-18T08:28:08.262Z,24.3
2018-02-18T08:29:08.597Z,27.4
2018-02-18T08:30:08.134Z,23.8
2018-02-18T08:31:08.049Z,22.6
2018-02-18T08:32:07.888Z,22.4
2018-02-18T08:33:09.389Z,24.6
2018-02-18T08:34:08.013Z,26.8
2018-02-18T08:35:07.682Z,23.6
2018-02-18T08:36:07.785Z,21.4
2018-02-18T08:37:07.538Z,21.1
2018-02-18T08:38:07.471Z,23.3
2018-02-18T08:39:07.227Z,25.9
2018-02-18T08:40:07.500Z,23.9
2018-02-18T08:41:08.156Z,20.2
2018-02-18T08:42:06.964Z,19.7
2018-02-18T08:43:06.990Z,23.2
2018-02-18T08:44:07.462Z,25.9
2018-02-18T08:45:06.952Z,23
2018-02-18T08:46:07.586Z,20.6
2018-02-18T08:47:07.369Z,20.2
2018-02-18T08:48:07.064Z,23.6
2018-02-18T08:49:07.609Z,25.7
2018-02-18T08:50:06.848Z,22
2018-02-18T08:51:07.067Z,19.2
2018-02-18T08:52:06.620Z,19.3
2018-02-18T08:53:06.773Z,23.6
2018-02-18T08:54:07.131Z,25.3
2018-02-18T08:55:06.032Z,21.6
2018-02-18T08:56:06.317Z,20.2
2018-02-18T08:57:06.085Z,20.8
2018-02-18T08:58:06.612Z,24.4
2018-02-18T08:59:06.568Z,25.3
2018-02-18T09:00:06.331Z,21.4
2018-02-18T09:01:05.996Z,20.3
2018-02-18T09:02:06.006Z,21.4
2018-02-18T09:03:05.651Z,24.7
2018-02-18T09:04:05.770Z,24.6
2018-02-18T09:05:05.950Z,21
2018-02-18T09:06:05.904Z,20.1
2018-02-18T09:07:05.417Z,21.8
2018-02-18T09:08:05.547Z,24.8
2018-02-18T09:09:05.132Z,23.8
2018-02-18T09:10:05.699Z,20.3
2018-02-18T09:11:06.023Z,19.6
2018-02-18T09:12:05.190Z,22.1
2018-02-18T09:13:04.928Z,24.9
2018-02-18T09:14:05.177Z,23
2018-02-18T09:15:05.332Z,19.9
2018-02-18T09:16:04.993Z,19.6
2018-02-18T09:17:04.625Z,22.9
2018-02-18T09:18:04.987Z,26.6
2018-02-18T09:19:04.971Z,24.5
2018-02-18T09:20:05.094Z,22.2
2018-02-18T09:21:04.406Z,21.9
2018-02-18T09:22:04.582Z,24.7
2018-02-18T09:23:04.353Z,27.8
2018-02-18T09:24:04.275Z,24.8
2018-02-18T09:25:04.417Z,22.4
2018-02-18T09:26:04.612Z,22.3
2018-02-18T09:27:04.166Z,25.7
2018-02-18T09:28:04.210Z,28.6
2018-02-18T09:29:04.273Z,24.8
2018-02-18T09:30:03.950Z,22.4
2018-02-18T09:31:04.008Z,22.6
2018-02-18T09:32:04.402Z,25.7
2018-02-18T09:33:03.916Z,27.1
2018-02-18T09:34:03.906Z,23.3
2018-02-18T09:35:03.577Z,22.1
2018-02-18T09:36:03.737Z,22.8
2018-02-18T09:37:03.787Z,25.6
2018-02-18T09:38:03.969Z,27.2
2018-02-18T09:39:03.343Z,23.3
2018-02-18T09:40:03.326Z,21.9
2018-02-18T09:41:03.431Z,23.6
2018-02-18T09:42:03.752Z,27.4
2018-02-18T09:43:03.333Z,27.7
2018-02-18T09:44:03.273Z,23.2
2018-02-18T09:45:03.039Z,22.2
2018-02-18T09:46:02.737Z,24.3
2018-02-18T09:47:02.768Z,28
2018-02-18T09:48:03.130Z,27.1
2018-02-18T09:49:03.023Z,23.6
2018-02-18T09:50:02.773Z,22.9
2018-02-18T09:51:02.831Z,25.6
2018-02-18T09:52:02.355Z,29.3
2018-02-18T09:53:02.762Z,31.9
2018-02-18T09:54:02.845Z,33.4
2018-02-18T09:55:02.351Z,29.8
2018-02-18T09:56:02.992Z,28
2018-02-18T09:57:02.324Z,27.5
2018-02-18T09:58:02.036Z,29.5
2018-02-18T09:59:02.360Z,30.4
2018-02-18T10:00:02.008Z,26.4
2018-02-18T10:01:02.182Z,24.8
2018-02-18T10:02:01.690Z,25.1
2018-02-18T10:03:01.728Z,27.4
2018-02-18T10:04:01.732Z,26.8
2018-02-18T10:05:02.702Z,23.8
2018-02-18T10:06:01.602Z,23
2018-02-18T10:07:01.524Z,24.1
2018-02-18T10:08:01.798Z,26.4
2018-02-18T10:09:01.190Z,24.9
2018-02-18T10:10:02.035Z,21.8
2018-02-18T10:11:01.756Z,20.9
2018-02-18T10:12:01.499Z,23.4
2018-02-18T10:13:01.032Z,26.9
2018-02-18T10:14:00.742Z,26.1
2018-02-18T10:15:00.911Z,23.1
2018-02-18T10:16:00.758Z,22.6
2018-02-18T10:17:00.490Z,25.3
2018-02-18T10:18:00.526Z,29.1
2018-02-18T10:19:00.244Z,27.1
2018-02-18T10:20:00.696Z,23.1
2018-02-18T10:21:02.035Z,22.5
2018-02-18T10:22:00.807Z,25.8
2018-02-18T10:23:00.229Z,28.1
2018-02-18T10:24:01.191Z,24.4
2018-02-18T10:25:00.155Z,23
2018-02-18T10:26:00.275Z,22.8
2018-02-18T10:27:00.757Z,25.8
2018-02-18T10:28:00.049Z,26.8
2018-02-18T10:29:00.071Z,23.1
2018-02-18T10:29:59.864Z,22
2018-02-18T10:31:00.189Z,22.6
2018-02-18T10:31:59.690Z,25.6
2018-02-18T10:33:00.146Z,25.9
2018-02-18T10:33:59.670Z,22.4
2018-02-18T10:34:59.841Z,21.6
2018-02-18T10:35:59.137Z,22.8
2018-02-18T10:36:59.183Z,26.1
2018-02-18T10:37:59.362Z,27.3
2018-02-18T10:38:59.303Z,23.6
2018-02-18T10:39:58.982Z,22.6
2018-02-18T10:40:59.539Z,24.1
2018-02-18T10:41:59.241Z,27.9
2018-02-18T10:42:58.887Z,27.6
2018-02-18T10:43:58.582Z,23.3
2018-02-18T10:44:58.620Z,22.2
2018-02-18T10:45:59.235Z,24.5
2018-02-18T10:46:58.927Z,27.3
2018-02-18T10:47:59.434Z,25.3
2018-02-18T10:48:58.573Z,22.3
2018-02-18T10:49:58.276Z,21.8
2018-02-18T10:50:58.505Z,24.6
2018-02-18T10:51:58.891Z,26.9
2018-02-18T10:52:58.694Z,24
2018-02-18T10:53:58.312Z,21.9
2018-02-18T10:54:58.310Z,21.6
2018-02-18T10:55:58.465Z,24.6
2018-02-18T10:56:57.974Z,26.3
2018-02-18T10:57:58.038Z,22.9
2018-02-18T10:58:58.431Z,21.6
2018-02-18T10:59:57.530Z,21.6
2018-02-18T11:00:57.752Z,24.9
2018-02-18T11:01:57.490Z,27.8
2018-02-18T11:02:58.226Z,24.1
2018-02-18T11:03:57.494Z,22.8
2018-02-18T11:04:58.559Z,23.4
2018-02-18T11:05:57.285Z,26.9
2018-02-18T11:06:57.022Z,29.2
2018-02-18T11:07:57.888Z,25.8
2018-02-18T11:08:57.178Z,22.3
2018-02-18T11:09:57.171Z,23.6
2018-02-18T11:10:56.645Z,27
2018-02-18T11:11:57.087Z,27.1
2018-02-18T11:12:56.888Z,23
2018-02-18T11:13:56.688Z,22.2
2018-02-18T11:14:56.554Z,24.1
2018-02-18T11:15:56.944Z,26.9
2018-02-18T11:16:56.780Z,25.5
2018-02-18T11:17:56.682Z,22.7
2018-02-18T11:18:56.168Z,22
2018-02-18T11:19:56.170Z,24
2018-02-18T11:20:56.584Z,26.2
2018-02-18T11:21:56.834Z,23.9
2018-02-18T11:22:56.298Z,21.9
2018-02-18T11:23:56.639Z,21.5
2018-02-18T11:24:56.204Z,24.3
2018-02-18T11:25:55.764Z,28.1
2018-02-18T11:26:56.227Z,26
2018-02-18T11:27:56.203Z,22.7
2018-02-18T11:28:56.773Z,22.2
2018-02-18T11:29:56.118Z,25.3
2018-02-18T11:30:55.598Z,29.1
2018-02-18T11:31:55.551Z,25.9
2018-02-18T11:32:55.657Z,23.6
2018-02-18T11:33:55.675Z,23.3
2018-02-18T11:34:55.411Z,26.8
2018-02-18T11:35:55.015Z,29.4
2018-02-18T11:36:55.329Z,25.9
2018-02-18T11:37:56.458Z,22.4
2018-02-18T11:38:54.815Z,22.9
2018-02-18T11:39:54.966Z,26.3
2018-02-18T11:40:55.135Z,27.1
2018-02-18T11:41:54.950Z,22.8
2018-02-18T11:42:55.298Z,21.9
2018-02-18T11:43:55.047Z,22.8
2018-02-18T11:44:54.820Z,25.9
2018-02-18T11:45:55.695Z,25.6
2018-02-18T11:46:54.626Z,22.1
2018-02-18T11:47:54.524Z,21.4
2018-02-18T11:48:54.464Z,23.4
2018-02-18T11:49:55.176Z,27.1
2018-02-18T11:50:54.338Z,26.9
2018-02-18T11:51:54.375Z,23.1
2018-02-18T11:52:53.805Z,22.2
2018-02-18T11:53:54.413Z,24.5
2018-02-18T11:54:53.824Z,28.6
2018-02-18T11:55:54.066Z,27.2
2018-02-18T11:56:54.349Z,23.1
2018-02-18T11:57:53.852Z,22
2018-02-18T11:58:53.870Z,25.8
2018-02-18T11:59:54.984Z,29.8
2018-02-18T12:00:53.852Z,27.4
2018-02-18T12:01:53.881Z,23.6
2018-02-18T12:02:53.480Z,23.1
2018-02-18T12:03:53.333Z,26.7
2018-02-18T12:04:53.341Z,29.1
2018-02-18T12:05:53.321Z,25.9
2018-02-18T12:06:53.130Z,24
2018-02-18T12:07:53.357Z,23.5
2018-02-18T12:08:53.015Z,25.9
2018-02-18T12:09:53.156Z,26.8
2018-02-18T12:10:53.539Z,23.2
2018-02-18T12:11:52.954Z,21.9
2018-02-18T12:12:52.671Z,22.2
2018-02-18T12:13:52.605Z,25.1
2018-02-18T12:14:52.452Z,25.3
2018-02-18T12:15:52.672Z,22
2018-02-18T12:16:52.340Z,21
2018-02-18T12:17:52.559Z,22.3
2018-02-18T12:18:52.593Z,26.1
2018-02-18T12:19:52.692Z,27.6
2018-02-18T12:20:52.403Z,24.1
2018-02-18T12:21:52.156Z,22.6
2018-02-18T12:22:52.216Z,24.3
2018-02-18T12:23:52.273Z,27.9
2018-02-18T12:24:52.299Z,27.8
2018-02-18T12:25:51.947Z,24.1
2018-02-18T12:26:52.424Z,23.4
2018-02-18T12:27:51.983Z,25.8
2018-02-18T12:28:51.602Z,29.6
2018-02-18T12:29:51.625Z,27.9
2018-02-18T12:30:52.706Z,25.2
2018-02-18T12:31:51.747Z,24.5
2018-02-18T12:32:51.739Z,26.6
2018-02-18T12:33:51.493Z,29.1
2018-02-18T12:34:51.060Z,26.5
2018-02-18T12:35:51.158Z,23.4
2018-02-18T12:36:51.257Z,23
2018-02-18T12:37:50.888Z,25.7
2018-02-18T12:38:51.457Z,27.3
2018-02-18T12:39:51.305Z,23.9
2018-02-18T12:40:50.837Z,21.9
2018-02-18T12:41:51.267Z,21.7
2018-02-18T12:42:51.162Z,24.6
2018-02-18T12:43:50.532Z,25.6
2018-02-18T12:44:50.349Z,22.2
2018-02-18T12:45:50.571Z,20.9
2018-02-18T12:46:50.757Z,21.6
2018-02-18T12:47:50.579Z,25.5
2018-02-18T12:48:51.083Z,27.9
2018-02-18T12:49:49.957Z,24.3
2018-02-18T12:50:50.177Z,23.3
2018-02-18T12:51:50.265Z,24.3
2018-02-18T12:52:50.277Z,27.7
2018-02-18T12:53:49.941Z,28.9
2018-02-18T12:54:50.350Z,24.6
2018-02-18T12:55:49.674Z,22.7
2018-02-18T12:56:50.098Z,24.3
2018-02-18T12:57:49.997Z,29.4
2018-02-18T12:58:49.860Z,30.1
2018-02-18T12:59:49.401Z,25.6
2018-02-18T13:00:49.608Z,24.4
2018-02-18T13:01:49.324Z,26
2018-02-18T13:02:49.225Z,29.3
2018-02-18T13:03:49.224Z,28.3
2018-02-18T13:04:49.935Z,24
2018-02-18T13:05:49.428Z,22.8
2018-02-18T13:06:48.907Z,25.7
2018-02-18T13:07:48.900Z,29.8
2018-02-18T13:08:49.182Z,27.8
2018-02-18T13:09:49.072Z,24
2018-02-18T13:10:48.682Z,23.6
2018-02-18T13:11:49.271Z,26.8
2018-02-18T13:12:49.335Z,30.3
2018-02-18T13:13:48.738Z,27.1
2018-02-18T13:14:48.714Z,25.2
2018-02-18T13:15:49.287Z,24.8
2018-02-18T13:16:48.292Z,27.1
2018-02-18T13:17:48.362Z,30.3
2018-02-18T13:18:48.612Z,33.5
2018-02-18T13:19:48.144Z,31.5
2018-02-18T13:20:48.464Z,28.8
2018-02-18T13:21:48.065Z,27.9